createdAt,value
2022-10-11T00:00:33.206Z,99083.19
2022-10-11T00:05:55.069Z,99080.22
2022-10-11T00:11:16.782Z,99086.28
2022-10-11T00:16:40.916Z,99083.13
2022-10-11T00:22:02.694Z,99080.50
2022-10-11T00:27:24.787Z,99087.13
2022-10-11T00:32:46.570Z,99091.38
2022-10-11T00:38:08.298Z,99089.88
2022-10-11T00:43:31.320Z,99088.16
2022-10-11T00:49:41.003Z,99099.56
2022-10-11T00:55:12.622Z,99101.66
2022-10-11T01:00:34.460Z,99093.03
2022-10-11T01:05:56.796Z,99095.03
2022-10-11T01:11:23.435Z,99098.97
2022-10-11T01:17:00.040Z,99105.03
2022-10-11T01:22:40.558Z,99106.09
2022-10-11T01:28:16.371Z,99105.63
2022-10-11T01:33:51.845Z,99113.47
2022-10-11T01:39:21.936Z,99109.88
2022-10-11T01:44:47.420Z,99107.16
2022-10-11T01:50:46.371Z,99107.53
2022-10-11T01:56:39.714Z,99112.47
2022-10-11T02:02:19.452Z,99109.31
2022-10-11T02:08:14.932Z,99102.34
2022-10-11T02:14:01.669Z,99105.81
2022-10-11T02:19:30.151Z,99104.66
2022-10-11T02:24:57.718Z,99107.09
2022-10-11T02:30:19.505Z,99109.94
2022-10-11T02:35:46.719Z,99121.81
2022-10-11T02:41:32.449Z,99124.78
2022-10-11T02:46:54.817Z,99119.78
2022-10-11T02:52:16.518Z,99122.69
2022-10-11T02:57:38.215Z,99123.00
2022-10-11T03:02:59.917Z,99125.78
2022-10-11T03:08:21.647Z,99129.03
2022-10-11T03:13:43.381Z,99130.91
2022-10-11T03:19:05.076Z,99128.59
2022-10-11T03:24:26.840Z,99131.66
2022-10-11T03:29:48.553Z,99137.59
2022-10-11T03:35:10.264Z,99144.81
2022-10-11T03:40:32.139Z,99138.13
2022-10-11T03:45:53.882Z,99147.16
2022-10-11T03:51:15.744Z,99156.47
2022-10-11T03:56:37.602Z,99156.84
2022-10-11T04:01:59.400Z,99152.41
2022-10-11T04:07:21.138Z,99163.06
2022-10-11T04:12:43.099Z,99164.78
2022-10-11T04:18:06.379Z,99170.50
2022-10-11T04:23:28.119Z,99178.66
2022-10-11T04:28:49.916Z,99173.97
2022-10-11T04:34:11.816Z,99173.00
2022-10-11T04:39:33.495Z,99172.53
2022-10-11T04:44:55.187Z,99172.53
2022-10-11T04:50:17.003Z,99174.00
2022-10-11T04:55:38.700Z,99181.97
2022-10-11T05:01:00.660Z,99186.56
2022-10-11T05:06:22.352Z,99196.31
2022-10-11T05:11:44.042Z,99194.63
2022-10-11T05:17:05.787Z,99192.75
2022-10-11T05:22:27.500Z,99207.69
2022-10-11T05:27:49.178Z,99204.84
2022-10-11T05:33:11.821Z,99213.56
2022-10-11T05:38:33.850Z,99214.06
2022-10-11T05:43:55.598Z,99224.50
2022-10-11T05:49:17.355Z,99227.88
2022-10-11T05:54:39.143Z,99233.50
2022-10-11T06:00:00.831Z,99240.16
2022-10-11T06:05:22.543Z,99241.63
2022-10-11T06:10:44.764Z,99255.00
2022-10-11T06:16:07.548Z,99252.84
2022-10-11T06:21:29.706Z,99263.84
2022-10-11T06:26:51.821Z,99268.81
2022-10-11T06:32:13.597Z,99268.91
2022-10-11T06:37:35.325Z,99280.81
2022-10-11T06:42:57.037Z,99279.91
2022-10-11T06:48:18.733Z,99288.53
2022-10-11T06:53:41.527Z,99287.59
2022-10-11T06:59:21.276Z,99294.75
2022-10-11T07:04:43.016Z,99293.97
2022-10-11T07:10:05.105Z,99307.41
2022-10-11T07:15:26.880Z,99315.84
2022-10-11T07:20:48.826Z,99320.75
2022-10-11T07:26:11.034Z,99322.47
2022-10-11T07:31:32.885Z,99331.28
2022-10-11T07:36:54.580Z,99333.25
2022-10-11T07:42:16.299Z,99331.56
2022-10-11T07:47:38.105Z,99325.75
2022-10-11T07:52:59.903Z,99332.31
2022-10-11T07:58:21.588Z,99329.47
2022-10-11T08:03:43.314Z,99334.38
2022-10-11T08:09:06.200Z,99339.44
2022-10-11T08:14:27.989Z,99339.28
2022-10-11T08:19:49.845Z,99343.22
2022-10-11T08:25:11.536Z,99339.34
2022-10-11T08:30:34.035Z,99348.56
2022-10-11T08:35:57.196Z,99350.91
2022-10-11T08:41:31.687Z,99344.06
2022-10-11T08:47:01.762Z,99345.25
2022-10-11T08:52:28.196Z,99353.63
2022-10-11T08:57:54.971Z,99356.84
2022-10-11T09:03:35.493Z,99353.47
2022-10-11T09:09:15.655Z,99349.13
2022-10-11T09:14:52.076Z,99350.25
2022-10-11T09:20:31.092Z,99352.78
2022-10-11T09:26:20.070Z,99356.66
2022-10-11T09:31:47.437Z,99362.66
2022-10-11T09:37:22.570Z,99356.53
2022-10-11T09:42:44.285Z,99360.88
2022-10-11T09:48:07.341Z,99354.09
2022-10-11T09:54:01.532Z,99363.50
2022-10-11T09:59:35.042Z,99364.91
2022-10-11T10:05:09.017Z,99356.25
2022-10-11T10:10:34.077Z,99361.97
2022-10-11T10:16:00.805Z,99370.06
2022-10-11T10:21:27.720Z,99363.59
2022-10-11T10:27:29.636Z,99355.22
2022-10-11T10:32:51.499Z,99364.34
2022-10-11T10:38:26.879Z,99361.22
2022-10-11T10:43:53.562Z,99365.47
2022-10-11T10:49:53.078Z,99366.41
2022-10-11T10:55:43.099Z,99359.75
2022-10-11T11:01:20.831Z,99363.69
2022-10-11T11:06:53.626Z,99353.16
2022-10-11T11:12:36.567Z,99343.91
2022-10-11T11:18:13.551Z,99348.63
2022-10-11T11:24:04.044Z,99351.16
2022-10-11T11:29:55.361Z,99339.19
2022-10-11T11:35:37.684Z,99331.28
2022-10-11T11:41:06.095Z,99337.69
2022-10-11T11:46:38.190Z,99337.59
2022-10-11T11:52:00.493Z,99336.84
2022-10-11T11:57:34.900Z,99330.38
2022-10-11T12:03:11.277Z,99324.16
2022-10-11T12:08:34.916Z,99327.22
2022-10-11T12:13:57.656Z,99331.84
2022-10-11T12:19:20.183Z,99330.16
2022-10-11T12:25:00.296Z,99319.53
2022-10-11T12:30:52.369Z,99321.59
2022-10-11T12:36:31.836Z,99320.75
2022-10-11T12:42:07.233Z,99320.69
2022-10-11T12:47:37.173Z,99318.97
2022-10-11T12:53:27.843Z,99319.09
2022-10-11T12:58:49.910Z,99306.84
2022-10-11T13:04:12.361Z,99316.25
2022-10-11T13:09:39.241Z,99308.88
2022-10-11T13:15:08.433Z,99302.69
2022-10-11T13:20:36.263Z,99299.75
2022-10-11T13:26:01.928Z,99289.22
2022-10-11T13:31:25.216Z,99290.59
2022-10-11T13:36:46.917Z,99301.69
2022-10-11T13:42:14.126Z,99294.44
2022-10-11T13:47:35.893Z,99298.25
2022-10-11T13:53:00.447Z,99295.63
2022-10-11T13:58:32.115Z,99296.34
2022-10-11T14:03:58.990Z,99286.97
2022-10-11T14:09:26.359Z,99283.78
2022-10-11T14:14:51.604Z,99294.22
2022-10-11T14:20:30.854Z,99290.34
2022-10-11T14:25:54.762Z,99292.41
2022-10-11T14:31:16.521Z,99297.91
2022-10-11T14:36:38.280Z,99289.25
2022-10-11T14:42:00.188Z,99292.84
2022-10-11T14:47:21.910Z,99288.72
2022-10-11T14:52:43.949Z,99285.88
2022-10-11T14:58:06.999Z,99287.75
2022-10-11T15:03:28.702Z,99285.78
2022-10-11T15:08:50.516Z,99283.16
2022-10-11T15:14:12.376Z,99275.53
2022-10-11T15:19:34.163Z,99266.69
2022-10-11T15:24:56.046Z,99270.28
2022-10-11T15:30:24.316Z,99268.84
2022-10-11T15:35:46.008Z,99269.13
2022-10-11T15:41:10.146Z,99269.97
2022-10-11T15:46:31.838Z,99266.72
2022-10-11T15:51:53.618Z,99270.59
2022-10-11T15:57:15.329Z,99267.66
2022-10-11T16:02:37.068Z,99267.03
2022-10-11T16:07:58.978Z,99271.13
2022-10-11T16:13:21.196Z,99270.22
2022-10-11T16:18:42.942Z,99269.06
2022-10-11T16:24:04.805Z,99269.91
2022-10-11T16:29:26.651Z,99276.41
2022-10-11T16:34:48.468Z,99273.97
2022-10-11T16:40:11.906Z,99278.91
2022-10-11T16:45:34.219Z,99274.81
2022-10-11T16:51:05.041Z,99274.16
2022-10-11T16:56:27.568Z,99282.28
2022-10-11T17:01:49.495Z,99280.28
2022-10-11T17:07:13.012Z,99281.53
2022-10-11T17:12:37.153Z,99286.13
2022-10-11T17:17:58.914Z,99283.31
2022-10-11T17:23:20.596Z,99279.75
2022-10-11T17:28:42.383Z,99283.75
2022-10-11T17:34:04.187Z,99274.66
2022-10-11T17:39:25.949Z,99273.91
2022-10-11T17:44:47.672Z,99270.16
2022-10-11T17:50:09.622Z,99274.19
2022-10-11T17:55:31.326Z,99277.41
2022-10-11T18:00:53.140Z,99288.53
2022-10-11T18:06:14.909Z,99299.16
2022-10-11T18:11:36.787Z,99300.38
2022-10-11T18:16:58.509Z,99300.19
2022-10-11T18:22:20.839Z,99296.97
2022-10-11T18:27:42.644Z,99293.78
2022-10-11T18:33:04.497Z,99291.16
2022-10-11T18:38:26.212Z,99286.19
2022-10-11T18:43:55.772Z,99278.75
2022-10-11T18:49:17.636Z,99286.19
2022-10-11T18:54:39.465Z,99278.47
2022-10-11T19:00:07.275Z,99283.28
2022-10-11T19:05:33.665Z,99286.19
2022-10-11T19:10:55.550Z,99280.44
2022-10-11T19:16:18.000Z,99275.75
2022-10-11T19:21:39.875Z,99274.34
2022-10-11T19:27:03.057Z,99278.75
2022-10-11T19:32:24.949Z,99285.03
2022-10-11T19:37:46.701Z,99288.41
2022-10-11T19:43:08.441Z,99280.34
2022-10-11T19:48:31.108Z,99277.91
2022-10-11T19:54:00.130Z,99277.06
2022-10-11T19:59:21.977Z,99278.00
2022-10-11T20:04:52.817Z,99286.00
2022-10-11T20:10:15.059Z,99291.44
2022-10-11T20:15:40.090Z,99289.97
2022-10-11T20:21:05.894Z,99293.34
2022-10-11T20:26:29.425Z,99295.09
2022-10-11T20:31:51.318Z,99298.47
2022-10-11T20:37:13.026Z,99292.94
2022-10-11T20:42:34.869Z,99296.59
2022-10-11T20:47:56.614Z,99293.63
2022-10-11T20:53:18.740Z,99292.78
2022-10-11T20:58:40.924Z,99292.88
2022-10-11T21:04:03.522Z,99293.06
2022-10-11T21:09:25.323Z,99286.47
2022-10-11T21:14:47.081Z,99291.53
2022-10-11T21:20:09.301Z,99287.69
2022-10-11T21:25:33.258Z,99289.28
2022-10-11T21:30:55.255Z,99286.34
2022-10-11T21:36:19.976Z,99286.56
2022-10-11T21:41:42.318Z,99281.22
2022-10-11T21:47:07.420Z,99279.63
2022-10-11T21:52:30.883Z,99277.84
2022-10-11T21:57:52.626Z,99274.44
2022-10-11T22:03:14.414Z,99273.06
2022-10-11T22:08:36.544Z,99280.56
2022-10-11T22:13:58.652Z,99275.94
2022-10-11T22:19:20.472Z,99276.81
2022-10-11T22:24:42.152Z,99270.31
2022-10-11T22:30:04.197Z,99265.81
2022-10-11T22:35:25.871Z,99261.88
2022-10-11T22:40:48.221Z,99263.84
2022-10-11T22:46:10.357Z,99253.78
2022-10-11T22:51:32.154Z,99256.81
2022-10-11T22:56:53.847Z,99251.16
2022-10-11T23:02:15.569Z,99253.16
2022-10-11T23:07:37.629Z,99263.06
2022-10-11T23:12:59.623Z,99262.25
2022-10-11T23:18:21.286Z,99248.72
2022-10-11T23:23:42.979Z,99247.13
2022-10-11T23:29:04.676Z,99256.22
2022-10-11T23:34:26.380Z,99246.34
2022-10-11T23:39:48.083Z,99246.00
2022-10-11T23:45:10.161Z,99242.31
2022-10-11T23:50:31.844Z,99244.97
2022-10-11T23:55:53.697Z,99244.34
